createdAt,value
2018-08-13T00:01:10.518Z,50.10
2018-08-13T00:03:39.061Z,50.66
2018-08-13T00:06:07.683Z,50.59
2018-08-13T00:08:36.237Z,50.12
2018-08-13T00:11:04.921Z,50.31
2018-08-13T00:13:33.485Z,50.07
2018-08-13T00:16:03.227Z,49.55
2018-08-13T00:18:31.770Z,49.91
2018-08-13T00:21:26.536Z,50.83
2018-08-13T00:23:55.006Z,50.95
2018-08-13T00:26:23.543Z,51.92
2018-08-13T00:28:52.125Z,51.05
2018-08-13T00:31:20.590Z,50.26
2018-08-13T00:33:49.172Z,49.92
2018-08-13T00:36:57.353Z,49.83
2018-08-13T00:39:25.962Z,50.46
2018-08-13T00:41:54.492Z,50.22
2018-08-13T00:44:22.965Z,51.44
2018-08-13T00:46:51.517Z,51.52
2018-08-13T00:49:20.025Z,52.13
2018-08-13T00:51:48.641Z,52.46
2018-08-13T00:54:17.161Z,51.78
2018-08-13T00:56:45.688Z,50.76
2018-08-13T00:59:14.250Z,50.06
2018-08-13T01:01:42.722Z,49.30
2018-08-13T01:04:26.468Z,50.12
2018-08-13T01:06:55.064Z,50.94
2018-08-13T01:09:23.657Z,51.51
2018-08-13T01:11:52.223Z,51.97
2018-08-13T01:14:21.542Z,51.95
2018-08-13T01:16:50.128Z,51.85
2018-08-13T01:19:18.723Z,51.93
2018-08-13T01:21:47.307Z,52.05
2018-08-13T01:24:15.863Z,52.63
2018-08-13T01:26:44.522Z,52.76
2018-08-13T01:29:13.046Z,52.79
2018-08-13T01:31:41.731Z,52.79
2018-08-13T01:34:17.660Z,52.80
2018-08-13T01:36:46.261Z,54.30
2018-08-13T01:39:14.857Z,54.64
2018-08-13T01:41:43.406Z,53.37
2018-08-13T01:44:11.900Z,53.08
2018-08-13T01:46:40.697Z,53.34
2018-08-13T01:49:09.261Z,52.16
2018-08-13T01:51:37.740Z,52.30
2018-08-13T01:54:06.298Z,52.42
2018-08-13T01:57:25.361Z,52.89
2018-08-13T01:59:53.895Z,52.59
2018-08-13T02:02:22.475Z,52.97
2018-08-13T02:04:50.976Z,53.80
2018-08-13T02:07:19.539Z,53.94
2018-08-13T02:09:48.124Z,54.76
2018-08-13T02:12:16.750Z,54.59
2018-08-13T02:14:45.271Z,54.85
2018-08-13T02:17:13.766Z,54.99
2018-08-13T02:19:42.345Z,55.32
2018-08-13T02:22:10.833Z,54.80
2018-08-13T02:24:39.340Z,55.29
2018-08-13T02:27:07.839Z,55.00
2018-08-13T02:29:36.382Z,55.43
2018-08-13T02:32:05.100Z,56.20
2018-08-13T02:34:33.713Z,56.53
2018-08-13T02:37:02.172Z,55.99
2018-08-13T02:39:30.648Z,55.50
2018-08-13T02:41:59.243Z,54.59
2018-08-13T02:44:27.877Z,54.04
2018-08-13T02:46:56.484Z,53.00
2018-08-13T02:49:25.074Z,52.25
2018-08-13T02:51:53.646Z,51.88
2018-08-13T02:54:22.388Z,51.59
2018-08-13T02:56:50.925Z,52.10
2018-08-13T02:59:20.195Z,53.79
2018-08-13T03:01:51.134Z,55.22
2018-08-13T03:04:22.419Z,56.85
2018-08-13T03:06:53.732Z,57.98
2018-08-13T03:09:25.661Z,57.08
2018-08-13T03:11:57.965Z,58.05
2018-08-13T03:14:28.220Z,60.30
2018-08-13T03:16:59.651Z,61.26
2018-08-13T03:19:30.429Z,61.62
2018-08-13T03:22:01.264Z,60.82
2018-08-13T03:24:32.200Z,62.37
2018-08-13T03:27:02.957Z,64.45
2018-08-13T03:29:33.457Z,64.69
2018-08-13T03:32:04.449Z,65.91
2018-08-13T03:34:33.153Z,67.44
2018-08-13T03:37:03.471Z,68.84
2018-08-13T03:39:34.379Z,70.78
2018-08-13T03:42:05.653Z,73.17
2018-08-13T03:44:36.517Z,74.66
2018-08-13T03:47:07.499Z,75.57
2018-08-13T03:49:38.184Z,77.18
2018-08-13T03:52:10.201Z,79.08
2018-08-13T03:54:41.250Z,79.67
2018-08-13T03:57:12.446Z,80.50
2018-08-13T03:59:58.186Z,80.74
2018-08-13T04:02:56.702Z,82.27
2018-08-13T04:05:27.997Z,82.59
2018-08-13T04:07:58.508Z,82.48
2018-08-13T04:10:28.373Z,82.70
2018-08-13T04:12:58.784Z,82.85
2018-08-13T04:15:28.825Z,82.71
2018-08-13T04:17:59.292Z,83.12
2018-08-13T04:20:30.005Z,83.86
2018-08-13T04:23:00.298Z,84.49
2018-08-13T04:25:30.744Z,85.20
2018-08-13T04:28:01.471Z,85.81
2018-08-13T04:30:31.944Z,86.47
2018-08-13T04:33:03.047Z,86.21
2018-08-13T04:35:33.701Z,87.04
2018-08-13T04:38:04.005Z,87.52
2018-08-13T04:40:34.298Z,87.55
2018-08-13T04:43:05.032Z,88.00
2018-08-13T04:45:36.024Z,88.86
2018-08-13T04:48:19.479Z,88.70
2018-08-13T04:50:49.935Z,89.75
2018-08-13T04:53:21.055Z,90.04
2018-08-13T04:55:51.011Z,90.52
2018-08-13T04:58:21.460Z,90.92
2018-08-13T05:00:52.726Z,91.28
2018-08-13T05:03:23.280Z,91.43
2018-08-13T05:05:53.561Z,91.53
2018-08-13T05:08:23.821Z,91.30
2018-08-13T05:10:54.896Z,91.64
2018-08-13T05:13:25.602Z,91.62
2018-08-13T05:15:56.108Z,91.60
2018-08-13T05:18:26.084Z,92.10
2018-08-13T05:20:57.863Z,92.33
2018-08-13T05:23:37.413Z,93.25
2018-08-13T05:26:07.873Z,93.72
2018-08-13T05:28:38.217Z,93.92
2018-08-13T05:31:08.597Z,93.81
2018-08-13T05:33:37.181Z,93.94
2018-08-13T05:36:05.801Z,94.26
2018-08-13T05:38:50.658Z,94.23
2018-08-13T05:41:19.306Z,94.96
2018-08-13T05:43:47.933Z,95.44
2018-08-13T05:46:22.223Z,95.25
2018-08-13T05:49:06.099Z,95.56
2018-08-13T05:51:34.649Z,95.54
2018-08-13T05:54:03.117Z,96.16
2018-08-13T05:56:31.641Z,96.30
2018-08-13T05:59:00.207Z,96.57
2018-08-13T06:01:28.941Z,97.28
2018-08-13T06:03:57.661Z,96.98
2018-08-13T06:06:26.149Z,97.07
2018-08-13T06:08:54.750Z,97.21
2018-08-13T06:11:23.347Z,96.89
2018-08-13T06:13:51.825Z,97.08
2018-08-13T06:16:20.414Z,97.35
2018-08-13T06:18:48.985Z,97.70
2018-08-13T06:21:17.565Z,97.48
2018-08-13T06:23:46.152Z,97.16
2018-08-13T06:26:14.773Z,97.53
2018-08-13T06:28:43.305Z,97.47
2018-08-13T06:31:11.809Z,97.23
2018-08-13T06:33:40.363Z,97.79
2018-08-13T06:36:08.844Z,97.37
2018-08-13T06:38:37.370Z,97.18
2018-08-13T06:41:05.920Z,97.47
2018-08-13T06:43:34.424Z,96.96
2018-08-13T06:46:02.875Z,97.62
2018-08-13T06:48:31.415Z,97.24
2018-08-13T06:51:00.013Z,97.22
2018-08-13T06:53:28.521Z,97.33
2018-08-13T06:55:57.047Z,97.43
2018-08-13T06:58:25.588Z,97.52
2018-08-13T07:00:54.420Z,97.33
2018-08-13T07:03:22.837Z,97.02
2018-08-13T07:05:51.325Z,97.26
2018-08-13T07:08:19.862Z,97.16
2018-08-13T07:10:48.441Z,96.90
2018-08-13T07:13:16.996Z,96.65
2018-08-13T07:15:45.624Z,96.86
2018-08-13T07:18:14.153Z,96.97
2018-08-13T07:20:42.670Z,96.62
2018-08-13T07:23:11.236Z,96.47
2018-08-13T07:25:39.834Z,96.85
2018-08-13T07:28:08.798Z,95.96
2018-08-13T07:30:37.306Z,96.29
2018-08-13T07:33:05.777Z,96.44
2018-08-13T07:35:34.352Z,96.46
2018-08-13T07:38:02.978Z,95.71
2018-08-13T07:40:32.100Z,95.90
2018-08-13T07:43:00.588Z,95.77
2018-08-13T07:45:29.321Z,95.25
2018-08-13T07:47:57.757Z,94.75
2018-08-13T07:57:09.370Z,95.08
2018-08-13T07:59:37.875Z,95.29
2018-08-13T08:02:06.421Z,94.96
2018-08-13T08:05:02.960Z,94.76
2018-08-13T08:07:31.565Z,95.09
2018-08-13T08:10:00.141Z,94.84
2018-08-13T08:12:28.693Z,94.44
2018-08-13T08:14:57.327Z,93.75
2018-08-13T08:17:25.878Z,92.98
2018-08-13T08:19:54.434Z,93.29
2018-08-13T08:22:22.990Z,92.98
2018-08-13T08:24:52.075Z,93.03
2018-08-13T08:27:20.589Z,92.49
2018-08-13T08:29:49.096Z,93.24
2018-08-13T08:32:17.531Z,92.42
2018-08-13T08:34:46.208Z,92.55
2018-08-13T08:37:14.768Z,93.10
2018-08-13T08:39:43.356Z,92.88
2018-08-13T08:42:11.902Z,93.57
2018-08-13T08:44:40.376Z,94.17
2018-08-13T08:47:08.924Z,93.84
2018-08-13T08:49:37.470Z,93.76
2018-08-13T08:52:06.245Z,93.09
2018-08-13T08:54:34.742Z,93.55
2018-08-13T08:57:03.345Z,93.41
2018-08-13T08:59:31.996Z,93.50
2018-08-13T09:02:00.641Z,93.45
2018-08-13T09:04:29.180Z,93.27
2018-08-13T09:06:57.747Z,92.34
2018-08-13T09:09:26.349Z,92.08
2018-08-13T09:11:54.913Z,92.59
2018-08-13T09:14:23.385Z,91.64
2018-08-13T09:16:57.980Z,91.21
2018-08-13T09:19:37.718Z,90.81
2018-08-13T09:22:17.487Z,90.87
2018-08-13T09:24:57.398Z,90.88
2018-08-13T09:27:37.242Z,89.97
2018-08-13T09:30:26.225Z,90.36
2018-08-13T09:33:06.726Z,89.28
2018-08-13T09:35:35.735Z,89.45
2018-08-13T09:38:04.401Z,87.97
2018-08-13T09:40:33.741Z,87.27
2018-08-13T09:43:02.330Z,86.95
2018-08-13T09:45:30.968Z,86.63
2018-08-13T09:47:59.477Z,86.51
2018-08-13T09:50:28.112Z,84.95
2018-08-13T09:52:56.660Z,84.53
2018-08-13T09:55:29.944Z,84.33
2018-08-13T09:57:58.408Z,84.84
2018-08-13T10:00:32.277Z,84.59
2018-08-13T10:03:00.784Z,83.51
2018-08-13T10:05:29.292Z,84.01
2018-08-13T10:07:57.858Z,83.17
2018-08-13T10:10:26.431Z,83.08
2018-08-13T10:12:54.965Z,82.49
2018-08-13T10:15:23.457Z,82.42
2018-08-13T10:17:52.041Z,82.24
2018-08-13T10:20:21.690Z,82.87
2018-08-13T10:22:50.316Z,82.87
2018-08-13T10:25:18.854Z,83.59
2018-08-13T10:27:47.372Z,83.76
2018-08-13T10:30:16.853Z,83.79
2018-08-13T10:32:45.734Z,83.54
2018-08-13T10:35:14.268Z,83.85
2018-08-13T10:37:43.333Z,85.18
2018-08-13T10:40:14.815Z,86.42
2018-08-13T10:42:43.361Z,86.25
2018-08-13T10:45:12.101Z,86.90
2018-08-13T10:47:40.597Z,87.23
2018-08-13T10:50:11.080Z,87.12
2018-08-13T10:52:53.012Z,85.75
2018-08-13T10:55:21.545Z,84.49
2018-08-13T10:57:50.007Z,83.40
2018-08-13T11:00:18.468Z,82.39
2018-08-13T11:02:47.149Z,81.36
2018-08-13T11:05:16.152Z,81.25
2018-08-13T11:07:44.833Z,80.22
2018-08-13T11:10:14.488Z,78.09
2018-08-13T11:12:43.212Z,78.16
2018-08-13T11:15:14.205Z,77.30
2018-08-13T11:17:43.081Z,77.74
2018-08-13T11:20:11.721Z,78.81
2018-08-13T11:22:41.394Z,77.67
2018-08-13T11:25:11.747Z,77.80
2018-08-13T11:27:40.337Z,78.50
2018-08-13T11:30:11.377Z,79.30
2018-08-13T11:32:39.968Z,79.72
2018-08-13T11:35:08.576Z,79.07
2018-08-13T11:37:37.496Z,78.79
2018-08-13T11:40:09.236Z,79.69
2018-08-13T11:42:37.958Z,79.63
2018-08-13T11:45:06.744Z,80.26
2018-08-13T11:47:35.730Z,79.68
2018-08-13T11:50:07.367Z,79.60
2018-08-13T11:52:35.866Z,78.84
2018-08-13T11:55:04.616Z,76.96
2018-08-13T11:57:33.594Z,76.59
2018-08-13T12:00:02.409Z,76.36
2018-08-13T12:02:31.005Z,76.18
2018-08-13T12:04:59.542Z,75.92
2018-08-13T12:07:28.090Z,76.60
2018-08-13T12:09:56.742Z,75.95
2018-08-13T12:12:25.304Z,76.14
2018-08-13T12:14:54.028Z,75.53
2018-08-13T12:17:22.547Z,73.09
2018-08-13T12:19:51.135Z,70.48
2018-08-13T12:22:19.723Z,70.44
2018-08-13T12:24:48.855Z,70.25
2018-08-13T12:27:49.257Z,69.31
2018-08-13T12:30:18.033Z,67.13
2018-08-13T12:32:46.808Z,66.50
2018-08-13T12:35:15.483Z,67.22
2018-08-13T12:37:44.025Z,65.93
2018-08-13T12:40:12.586Z,63.46
2018-08-13T12:42:41.186Z,64.49
2018-08-13T12:45:12.640Z,63.10
2018-08-13T12:47:41.515Z,63.94
2018-08-13T12:50:12.153Z,63.15
2018-08-13T12:52:40.930Z,64.91
2018-08-13T12:55:10.402Z,65.82
2018-08-13T12:57:39.029Z,65.79
2018-08-13T13:00:10.859Z,68.03
2018-08-13T13:02:39.852Z,67.12
2018-08-13T13:05:09.891Z,68.16
2018-08-13T13:07:38.869Z,71.45
2018-08-13T13:10:10.622Z,73.57
2018-08-13T13:12:40.735Z,76.19
2018-08-13T13:15:12.121Z,77.30
2018-08-13T13:17:40.945Z,77.98
2018-08-13T13:20:13.105Z,79.48
2018-08-13T13:22:48.212Z,79.95
2018-08-13T13:25:17.175Z,81.21
2018-08-13T13:27:45.845Z,81.85
2018-08-13T13:30:15.703Z,81.94
2018-08-13T13:32:59.001Z,82.31
2018-08-13T13:35:27.797Z,81.97
2018-08-13T13:37:56.451Z,83.00
2018-08-13T13:40:25.471Z,83.06
2018-08-13T13:42:54.236Z,83.13
2018-08-13T13:45:22.798Z,83.45
2018-08-13T13:47:51.339Z,83.76
2018-08-13T13:50:20.306Z,84.58
2018-08-13T13:52:48.933Z,84.80
2018-08-13T13:55:17.798Z,85.14
2018-08-13T13:57:46.415Z,85.64
2018-08-13T14:00:19.961Z,85.64
2018-08-13T14:02:49.898Z,86.27
2018-08-13T14:05:18.821Z,86.52
2018-08-13T14:07:47.621Z,87.14
2018-08-13T14:10:22.595Z,87.79
2018-08-13T14:12:54.374Z,87.41
2018-08-13T14:15:23.353Z,87.40
2018-08-13T14:17:52.568Z,87.03
2018-08-13T14:20:21.567Z,87.07
2018-08-13T14:22:50.202Z,87.29
2018-08-13T14:25:29.917Z,87.52
2018-08-13T14:27:58.542Z,87.58
2018-08-13T14:30:28.367Z,87.10
2018-08-13T14:32:57.020Z,87.39
2018-08-13T14:35:26.269Z,86.95
2018-08-13T14:37:54.807Z,86.62
2018-08-13T14:40:23.469Z,86.44
2018-08-13T14:42:52.057Z,86.62
2018-08-13T14:45:20.991Z,85.94
2018-08-13T14:47:51.029Z,86.68
2018-08-13T14:50:19.855Z,86.78
2018-08-13T14:52:49.364Z,86.19
2018-08-13T14:55:19.296Z,85.92
2018-08-13T14:57:47.984Z,85.70
2018-08-13T15:00:19.712Z,86.80
2018-08-13T15:02:48.882Z,86.84
2018-08-13T15:05:17.832Z,87.06
2018-08-13T15:07:47.918Z,87.20
2018-08-13T15:10:19.622Z,86.94
2018-08-13T15:12:48.588Z,86.65
2018-08-13T15:15:17.174Z,86.54
2018-08-13T15:17:45.968Z,86.41
2018-08-13T15:20:16.848Z,85.79
2018-08-13T15:22:45.685Z,86.59
2018-08-13T15:25:14.374Z,86.23
2018-08-13T15:27:43.190Z,85.08
2018-08-13T15:30:21.320Z,83.59
2018-08-13T15:32:50.878Z,83.71
2018-08-13T15:35:19.671Z,82.27
2018-08-13T15:37:48.816Z,80.84
2018-08-13T15:40:17.922Z,80.01
2018-08-13T15:42:47.018Z,79.98
2018-08-13T15:45:17.779Z,79.25
2018-08-13T15:47:47.094Z,77.63
2018-08-13T15:50:18.125Z,77.33
2018-08-13T15:52:47.418Z,77.12
2018-08-13T15:55:16.004Z,77.53
2018-08-13T15:57:45.273Z,77.77
2018-08-13T16:00:16.245Z,76.89
2018-08-13T16:02:45.211Z,76.23
2018-08-13T16:05:13.864Z,74.71
2018-08-13T16:07:45.505Z,74.85
2018-08-13T16:10:15.533Z,75.95
2018-08-13T16:12:44.354Z,77.57
2018-08-13T16:15:12.889Z,77.38
2018-08-13T16:17:42.037Z,78.40
2018-08-13T16:20:16.440Z,78.85
2018-08-13T16:25:13.368Z,78.74
2018-08-13T16:27:43.830Z,78.72
2018-08-13T16:30:44.565Z,79.67
2018-08-13T16:33:13.070Z,80.19
2018-08-13T16:35:42.030Z,79.82
2018-08-13T16:38:11.008Z,81.57
2018-08-13T16:40:39.564Z,82.94
2018-08-13T16:43:14.834Z,84.60
2018-08-13T16:45:44.056Z,84.81
2018-08-13T16:48:13.348Z,85.01
2018-08-13T16:50:42.049Z,85.22
2018-08-13T16:53:10.687Z,84.86
2018-08-13T16:55:39.296Z,84.99
2018-08-13T16:58:08.120Z,84.77
2018-08-13T17:00:41.106Z,85.57
2018-08-13T17:03:09.694Z,85.11
2018-08-13T17:05:39.238Z,85.71
2018-08-13T17:08:08.294Z,85.83
2018-08-13T17:10:37.318Z,86.31
2018-08-13T17:13:06.573Z,85.60
2018-08-13T17:15:35.559Z,85.36
2018-08-13T17:18:05.265Z,84.83
2018-08-13T17:20:38.125Z,83.98
2018-08-13T17:23:06.813Z,83.71
2018-08-13T17:25:35.460Z,84.59
2018-08-13T17:28:04.056Z,84.77
2018-08-13T17:30:32.626Z,85.15
2018-08-13T17:33:02.804Z,85.22
2018-08-13T17:35:36.538Z,84.96
2018-08-13T17:38:41.640Z,84.71
2018-08-13T17:41:10.436Z,83.85
2018-08-13T17:43:39.446Z,82.65
2018-08-13T17:46:09.813Z,82.38
2018-08-13T17:48:39.038Z,83.15
2018-08-13T17:51:08.198Z,83.56
2018-08-13T17:53:37.347Z,83.76
2018-08-13T17:56:06.463Z,83.69
2018-08-13T17:58:34.967Z,84.79
2018-08-13T18:01:03.580Z,85.11
2018-08-13T18:03:32.579Z,85.66
2018-08-13T18:06:01.557Z,85.82
2018-08-13T18:08:30.185Z,85.72
2018-08-13T18:11:29.491Z,85.87
2018-08-13T18:13:58.554Z,86.64
2018-08-13T18:16:27.604Z,86.83
2018-08-13T18:18:56.314Z,86.81
2018-08-13T18:21:26.338Z,87.66
2018-08-13T18:23:55.199Z,87.54
2018-08-13T18:26:32.232Z,88.19
2018-08-13T18:29:01.136Z,88.84
2018-08-13T18:31:30.656Z,89.27
2018-08-13T18:33:59.204Z,90.30
2018-08-13T18:36:28.332Z,90.63
2018-08-13T18:38:56.897Z,91.34
2018-08-13T18:41:25.493Z,91.02
2018-08-13T18:43:54.020Z,91.76
2018-08-13T18:46:23.679Z,92.05
2018-08-13T18:48:52.736Z,92.37
2018-08-13T18:51:21.356Z,92.63
2018-08-13T18:53:50.105Z,93.37
2018-08-13T18:56:18.876Z,93.33
2018-08-13T18:58:47.904Z,93.32
2018-08-13T19:01:16.512Z,93.78
2018-08-13T19:03:45.191Z,93.34
2018-08-13T19:06:13.817Z,93.59
2018-08-13T19:08:42.454Z,94.09
2018-08-13T19:11:11.318Z,93.94
2018-08-13T19:13:39.979Z,94.07
2018-08-13T19:16:08.610Z,94.39
2018-08-13T19:18:37.234Z,94.01
2018-08-13T19:21:06.388Z,94.33
2018-08-13T19:23:35.586Z,94.73
2018-08-13T19:26:04.402Z,94.47
2018-08-13T19:28:33.344Z,94.46
2018-08-13T19:31:01.979Z,94.59
2018-08-13T19:33:30.562Z,94.67
2018-08-13T19:35:59.152Z,94.58
2018-08-13T19:38:27.684Z,94.32
2018-08-13T19:40:56.627Z,94.34
2018-08-13T19:43:25.324Z,94.39
2018-08-13T19:45:54.049Z,94.91
2018-08-13T19:48:22.978Z,94.57
2018-08-13T19:50:51.850Z,95.01
2018-08-13T19:53:20.468Z,94.82
2018-08-13T19:55:48.977Z,94.65
2018-08-13T19:58:17.843Z,94.39
2018-08-13T20:00:46.965Z,94.59
2018-08-13T20:03:16.051Z,94.37
2018-08-13T20:05:44.592Z,94.40
2018-08-13T20:08:14.541Z,94.12
2018-08-13T20:10:43.084Z,94.44
2018-08-13T20:13:12.045Z,94.77
2018-08-13T20:15:40.673Z,94.83
2018-08-13T20:18:09.513Z,94.64
2018-08-13T20:20:38.612Z,94.71
2018-08-13T20:23:07.493Z,94.86
2018-08-13T20:25:36.077Z,94.79
2018-08-13T20:28:04.831Z,94.78
2018-08-13T20:30:33.615Z,94.84
2018-08-13T20:33:02.382Z,94.37
2018-08-13T20:35:30.985Z,94.58
2018-08-13T20:38:00.020Z,94.69
2018-08-13T20:40:29.031Z,94.72
2018-08-13T20:42:57.681Z,95.45
2018-08-13T20:45:27.013Z,95.47
2018-08-13T20:47:55.547Z,95.45
2018-08-13T20:50:25.075Z,95.26
2018-08-13T20:52:54.768Z,95.82
2018-08-13T20:55:25.114Z,95.41
2018-08-13T20:57:53.714Z,95.93
2018-08-13T21:00:24.101Z,95.44
2018-08-13T21:02:52.644Z,95.80
2018-08-13T21:05:21.257Z,95.74
2018-08-13T21:07:50.577Z,95.98
2018-08-13T21:10:20.571Z,96.11
2018-08-13T21:12:49.550Z,95.85
2018-08-13T21:15:18.363Z,96.31
2018-08-13T21:17:47.337Z,96.39
2018-08-13T21:20:26.482Z,95.94
2018-08-13T21:22:55.257Z,95.95
2018-08-13T21:25:24.238Z,96.55
2018-08-13T21:27:52.751Z,96.36
2018-08-13T21:30:21.338Z,96.43
2018-08-13T21:32:50.054Z,96.45
2018-08-13T21:35:21.775Z,96.71
2018-08-13T21:37:50.619Z,97.25
2018-08-13T21:40:19.316Z,97.61
2018-08-13T21:42:48.749Z,97.52
2018-08-13T21:45:17.396Z,96.98
2018-08-13T21:47:46.063Z,97.39
2018-08-13T21:50:17.152Z,96.88
2018-08-13T21:52:46.464Z,97.16
2018-08-13T21:55:15.177Z,96.80
2018-08-13T21:57:43.885Z,96.83
2018-08-13T22:00:49.900Z,97.12
2018-08-13T22:03:18.524Z,96.76
2018-08-13T22:05:47.089Z,97.00
2018-08-13T22:08:15.708Z,97.13
2018-08-13T22:10:44.299Z,96.64
2018-08-13T22:13:12.848Z,96.59
2018-08-13T22:15:41.560Z,96.61
2018-08-13T22:18:14.241Z,96.75
2018-08-13T22:20:42.847Z,96.37
2018-08-13T22:23:11.515Z,96.60
2018-08-13T22:25:42.733Z,96.69
2018-08-13T22:28:12.266Z,97.18
2018-08-13T22:30:40.843Z,96.92
2018-08-13T22:33:10.509Z,97.21
2018-08-13T22:35:39.170Z,97.78
2018-08-13T22:38:08.389Z,97.51
2018-08-13T22:40:37.553Z,97.75
2018-08-13T22:43:06.915Z,97.85
2018-08-13T22:45:35.556Z,98.63
2018-08-13T22:48:04.197Z,98.46
2018-08-13T22:50:32.776Z,98.69
2018-08-13T22:53:01.527Z,99.23
2018-08-13T22:55:30.451Z,98.76
2018-08-13T22:57:59.089Z,99.58
2018-08-13T23:00:27.631Z,99.41
2018-08-13T23:02:56.174Z,99.47
2018-08-13T23:05:26.695Z,99.88
2018-08-13T23:07:55.309Z,100.00
2018-08-13T23:10:24.889Z,100.00
2018-08-13T23:12:54.860Z,99.82
2018-08-13T23:15:23.648Z,100.00
2018-08-13T23:17:53.038Z,100.00
2018-08-13T23:20:24.368Z,100.00
2018-08-13T23:22:59.214Z,100.00
2018-08-13T23:25:28.483Z,100.00
2018-08-13T23:27:58.090Z,100.00
2018-08-13T23:30:26.778Z,100.00
2018-08-13T23:32:56.184Z,100.00
2018-08-13T23:35:25.597Z,100.00
2018-08-13T23:37:54.482Z,100.00
2018-08-13T23:40:23.512Z,100.00
2018-08-13T23:42:52.191Z,100.00
2018-08-13T23:45:23.304Z,100.00
2018-08-13T23:47:51.791Z,100.00
2018-08-13T23:50:22.151Z,100.00
2018-08-13T23:52:52.166Z,99.93
2018-08-13T23:55:28.760Z,100.00
2018-08-13T23:57:57.588Z,100.00
